createdAt,value
2022-12-21T00:01:48.250Z,13.20
2022-12-21T00:06:52.355Z,12.97
2022-12-21T00:11:55.845Z,12.23
2022-12-21T00:17:00.779Z,12.70
2022-12-21T00:22:04.216Z,12.53
2022-12-21T00:27:07.597Z,13.17
2022-12-21T00:32:12.679Z,12.43
2022-12-21T00:37:16.026Z,12.10
2022-12-21T00:42:19.403Z,11.40
2022-12-21T00:47:24.158Z,12.47
2022-12-21T00:52:29.477Z,12.57
2022-12-21T00:57:32.832Z,12.60
2022-12-21T01:02:38.141Z,11.53
2022-12-21T01:07:41.741Z,11.40
2022-12-21T01:12:45.039Z,12.90
2022-12-21T01:17:50.170Z,12.07
2022-12-21T01:22:53.475Z,12.77
2022-12-21T01:27:57.134Z,12.83
2022-12-21T01:33:02.018Z,13.90
2022-12-21T01:38:05.621Z,14.13
2022-12-21T01:43:19.892Z,13.07
2022-12-21T01:48:24.711Z,12.95
2022-12-21T01:53:32.985Z,14.23
2022-12-21T01:58:37.653Z,15.13
2022-12-21T02:08:50.760Z,15.33
2022-12-21T02:13:54.103Z,15.83
2022-12-21T02:20:02.881Z,14.90
2022-12-21T02:25:40.673Z,15.83
2022-12-21T02:31:01.570Z,15.13
2022-12-21T02:36:18.683Z,14.60
2022-12-21T02:41:37.943Z,14.97
2022-12-21T02:46:49.136Z,14.53
2022-12-21T02:51:58.807Z,15.03
2022-12-21T02:57:02.315Z,14.67
2022-12-21T03:02:38.252Z,14.63
2022-12-21T03:07:54.246Z,15.20
2022-12-21T03:13:06.670Z,15.30
2022-12-21T03:18:20.934Z,15.93
2022-12-21T03:23:32.144Z,16.20
2022-12-21T03:28:38.437Z,15.73
2022-12-21T03:33:49.388Z,15.50
2022-12-21T03:38:56.389Z,15.80
2022-12-21T03:44:03.844Z,17.60
2022-12-21T03:49:14.340Z,16.27
2022-12-21T03:54:25.576Z,15.23
2022-12-21T03:59:29.601Z,15.63
2022-12-21T04:04:39.489Z,15.60
2022-12-21T04:09:43.356Z,15.03
2022-12-21T04:14:46.726Z,16.17
2022-12-21T04:20:00.915Z,17.10
2022-12-21T04:25:22.187Z,22.30
2022-12-21T04:30:25.673Z,21.20
2022-12-21T04:35:30.580Z,24.17
2022-12-21T04:40:33.989Z,21.53
2022-12-21T04:45:37.444Z,20.63
2022-12-21T04:50:42.767Z,21.60
2022-12-21T04:55:46.780Z,17.97
2022-12-21T05:00:50.255Z,17.92
2022-12-21T05:05:55.059Z,19.63
2022-12-21T05:11:09.121Z,20.47
2022-12-21T05:16:14.369Z,15.98
2022-12-21T05:21:19.259Z,16.07
2022-12-21T05:26:22.884Z,16.20
2022-12-21T05:31:26.424Z,15.40
2022-12-21T05:36:31.761Z,16.37
2022-12-21T05:41:35.029Z,14.47
2022-12-21T05:46:39.066Z,17.20
2022-12-21T05:51:43.943Z,14.38
2022-12-21T06:01:50.553Z,17.10
2022-12-21T06:06:55.546Z,14.73
2022-12-21T06:17:02.022Z,15.77
2022-12-21T06:22:06.905Z,13.93
2022-12-21T06:27:10.362Z,15.23
2022-12-21T06:32:13.694Z,16.30
2022-12-21T06:37:18.557Z,14.53
2022-12-21T06:42:22.032Z,14.60
2022-12-21T06:47:25.513Z,15.70
2022-12-21T06:52:30.421Z,15.27
2022-12-21T06:57:34.217Z,16.30
2022-12-21T07:02:37.958Z,13.43
2022-12-21T07:07:43.229Z,15.97
2022-12-21T07:12:46.555Z,15.60
2022-12-21T07:17:50.031Z,15.57
2022-12-21T07:22:54.945Z,16.53
2022-12-21T07:27:58.645Z,14.27
2022-12-21T07:33:02.191Z,13.73
2022-12-21T07:38:07.025Z,14.83
2022-12-21T07:48:14.604Z,14.63
2022-12-21T07:53:19.731Z,13.77
2022-12-21T07:58:23.184Z,14.87
2022-12-21T08:03:26.767Z,14.50
2022-12-21T08:08:31.797Z,13.73
2022-12-21T08:13:35.274Z,13.27
2022-12-21T08:18:39.411Z,12.60
2022-12-21T08:23:44.255Z,12.98
2022-12-21T08:28:48.539Z,12.97
2022-12-21T08:33:52.037Z,12.38
2022-12-21T08:39:13.427Z,12.60
2022-12-21T08:44:16.923Z,10.10
2022-12-21T08:49:20.476Z,10.65
2022-12-21T08:54:25.421Z,10.37
2022-12-21T08:59:28.858Z,9.03
2022-12-21T09:04:32.431Z,9.90
2022-12-21T09:09:37.264Z,8.83
2022-12-21T09:14:40.803Z,9.67
2022-12-21T09:19:44.451Z,10.60
2022-12-21T09:24:49.437Z,9.93
2022-12-21T09:29:52.959Z,9.93
2022-12-21T09:34:56.526Z,9.57
2022-12-21T09:40:01.457Z,9.83
2022-12-21T09:45:18.145Z,10.07
2022-12-21T09:50:25.221Z,10.97
2022-12-21T09:55:34.859Z,11.40
2022-12-21T10:00:39.233Z,12.03
2022-12-21T10:05:59.988Z,11.43
2022-12-21T10:11:14.652Z,11.20
2022-12-21T10:16:42.947Z,12.00
2022-12-21T10:21:55.751Z,12.33
2022-12-21T10:27:05.983Z,12.30
2022-12-21T10:32:14.993Z,11.07
2022-12-21T10:37:19.976Z,11.77
2022-12-21T10:48:09.251Z,12.30
2022-12-21T10:53:21.524Z,13.10
2022-12-21T10:58:29.518Z,11.87
2022-12-21T11:03:37.794Z,12.20
2022-12-21T11:08:47.333Z,12.37
2022-12-21T11:14:02.482Z,13.37
2022-12-21T11:19:14.163Z,11.47
2022-12-21T11:24:23.182Z,10.60
2022-12-21T11:29:31.566Z,10.80
2022-12-21T11:34:38.405Z,9.90
2022-12-21T11:39:46.005Z,11.80
2022-12-21T11:44:52.466Z,9.73
2022-12-21T11:50:29.855Z,8.87
2022-12-21T11:55:39.072Z,10.77
2022-12-21T12:01:02.141Z,8.80
2022-12-21T12:06:23.877Z,9.03
2022-12-21T12:11:42.071Z,8.10
2022-12-21T12:17:00.686Z,7.70
2022-12-21T12:22:27.683Z,9.23
2022-12-21T12:27:53.680Z,8.57
2022-12-21T12:33:09.919Z,7.47
2022-12-21T12:38:19.453Z,8.80
2022-12-21T12:43:34.270Z,9.15
2022-12-21T12:48:48.215Z,9.45
2022-12-21T12:53:58.873Z,7.78
2022-12-21T12:59:08.661Z,8.57
2022-12-21T13:04:28.010Z,9.97
2022-12-21T13:09:42.930Z,10.00
2022-12-21T13:19:55.549Z,9.60
2022-12-21T13:25:01.998Z,8.67
2022-12-21T13:30:14.784Z,9.83
2022-12-21T13:35:27.586Z,10.47
2022-12-21T13:40:38.873Z,10.10
2022-12-21T13:45:49.268Z,6.27
2022-12-21T13:51:09.491Z,8.90
2022-12-21T13:56:22.663Z,9.33
2022-12-21T14:01:41.472Z,10.10
2022-12-21T14:07:16.129Z,9.70
2022-12-21T14:12:34.390Z,10.33
2022-12-21T14:17:46.729Z,10.40
2022-12-21T14:22:51.811Z,11.20
2022-12-21T14:28:08.173Z,9.57
2022-12-21T14:33:18.537Z,10.10
2022-12-21T14:38:30.727Z,10.63
2022-12-21T14:43:34.280Z,10.53
2022-12-21T14:49:05.370Z,9.97
2022-12-21T14:54:14.566Z,10.27
2022-12-21T14:59:18.965Z,9.73
2022-12-21T15:04:32.523Z,9.60
2022-12-21T15:09:37.412Z,10.93
2022-12-21T15:14:45.719Z,10.27
2022-12-21T15:19:53.503Z,10.07
2022-12-21T15:25:02.314Z,9.35
2022-12-21T15:30:22.560Z,11.40
2022-12-21T15:35:35.034Z,10.60
2022-12-21T15:40:40.396Z,9.95
2022-12-21T15:45:51.169Z,10.20
2022-12-21T15:50:57.215Z,9.98
2022-12-21T15:56:02.050Z,10.00
2022-12-21T16:01:18.859Z,10.30
2022-12-21T16:06:26.695Z,9.75
2022-12-21T16:12:10.659Z,10.10
2022-12-21T16:16:59.505Z,8.18
2022-12-21T16:22:07.604Z,9.13
2022-12-21T16:27:18.579Z,8.88
2022-12-21T16:32:23.408Z,8.40
2022-12-21T16:42:36.198Z,9.13
2022-12-21T16:47:39.578Z,9.80
2022-12-21T16:52:50.433Z,8.82
2022-12-21T16:57:58.968Z,9.05
2022-12-21T17:03:11.882Z,9.02
2022-12-21T17:08:25.057Z,8.55
2022-12-21T17:13:30.413Z,8.82
2022-12-21T17:18:47.919Z,11.48
2022-12-21T17:23:56.169Z,9.10
2022-12-21T17:29:00.959Z,10.05
2022-12-21T17:39:14.567Z,8.10
2022-12-21T17:49:42.912Z,6.30
2022-12-21T17:54:46.432Z,8.57
2022-12-21T17:59:51.231Z,7.18
2022-12-21T18:09:59.760Z,7.38
2022-12-21T18:15:04.831Z,6.32
2022-12-21T18:20:15.881Z,6.93
2022-12-21T18:25:22.219Z,6.03
2022-12-21T18:30:29.169Z,5.95
2022-12-21T18:35:32.620Z,6.57
2022-12-21T18:40:35.926Z,5.72
2022-12-21T18:45:40.737Z,4.35
2022-12-21T18:55:48.778Z,5.15
2022-12-21T19:00:53.585Z,5.47
2022-12-21T19:11:01.223Z,4.55
2022-12-21T19:16:10.003Z,5.18
2022-12-21T19:21:22.057Z,5.38
2022-12-21T19:26:29.344Z,3.38
2022-12-21T19:31:34.261Z,4.30
2022-12-21T19:36:38.824Z,4.40
2022-12-21T19:41:42.877Z,4.20
2022-12-21T19:46:47.872Z,4.45
2022-12-21T19:51:52.168Z,3.97
2022-12-21T19:56:58.010Z,4.03
2022-12-21T20:02:05.828Z,4.13
2022-12-21T20:07:12.655Z,4.15
2022-12-21T20:12:16.736Z,3.53
2022-12-21T20:17:24.610Z,3.50
2022-12-21T20:22:29.550Z,3.83
2022-12-21T20:32:39.193Z,4.22
2022-12-21T20:43:04.201Z,3.20
2022-12-21T20:48:16.309Z,3.88
2022-12-21T20:53:21.444Z,3.40
2022-12-21T20:58:24.832Z,3.13
2022-12-21T21:03:32.865Z,2.88
2022-12-21T21:08:36.471Z,3.00
2022-12-21T21:13:40.291Z,3.03
2022-12-21T21:18:45.229Z,3.33
2022-12-21T21:28:51.673Z,3.15
2022-12-21T21:33:56.516Z,3.63
2022-12-21T21:44:30.298Z,2.67
2022-12-21T21:49:35.170Z,3.13
2022-12-21T21:59:41.772Z,2.83
2022-12-21T22:04:49.858Z,2.45
2022-12-21T22:16:03.457Z,2.55
2022-12-21T22:21:51.105Z,2.58
2022-12-21T22:27:11.742Z,2.20
2022-12-21T22:32:16.628Z,2.30
2022-12-21T22:42:46.481Z,1.90
2022-12-21T22:47:50.484Z,2.13
2022-12-21T22:52:55.434Z,2.08
2022-12-21T23:03:02.339Z,2.15
2022-12-21T23:08:07.213Z,1.73
2022-12-21T23:13:32.386Z,1.80
2022-12-21T23:18:37.453Z,1.83
2022-12-21T23:23:59.371Z,1.75
2022-12-21T23:29:02.781Z,2.00
2022-12-21T23:34:23.584Z,1.88
2022-12-21T23:40:01.404Z,2.08
2022-12-21T23:45:06.725Z,2.20
2022-12-21T23:50:28.436Z,2.10
2022-12-21T23:55:51.456Z,2.17
